Time;durP1;ratioP1;P1;durP2;ratioP2;P2;SDS_P1;SDS_P2;PMS_P1;PMS_P2;Temp;Humidity;BMP_temperature;BMP_pressure;BME280_temperature;BME280_humidity;BME280_pressure;Samples;Min_cycle;Max_cycle;Signal;HPM_P1;HPM_P2
2022/08/02 00:00:00;;;;;;;38.83;36.03;;;;;;;-143.39;100.00;64013.03;5051697;28;20049;-79
2022/08/02 00:02:27;;;;;;;40.63;37.55;;;;;;;-143.39;100.00;64013.03;5046675;28;20048;-81
2022/08/02 00:04:54;;;;;;;39.17;36.17;;;;;;;-143.39;100.00;64013.03;5049781;28;20049;-79
2022/08/02 00:07:22;;;;;;;45.78;42.53;;;;;;;-143.39;100.00;64013.03;5043393;28;20045;-79
2022/08/02 00:09:50;;;;;;;41.40;38.08;;;;;;;-143.39;100.00;64013.03;5047907;28;20056;-81
2022/08/02 00:12:17;;;;;;;42.42;39.10;;;;;;;-143.39;100.00;64013.03;5051330;28;20166;-79
2022/08/02 00:14:44;;;;;;;42.60;39.58;;;;;;;-143.39;100.00;64013.03;5046615;28;20049;-79
2022/08/02 00:17:11;;;;;;;42.35;39.15;;;;;;;-143.39;100.00;64013.03;5050830;28;20052;-82
2022/08/02 00:19:37;;;;;;;52.97;49.40;;;;;;;-143.39;100.00;64013.03;5049396;28;20053;-82
2022/08/02 00:22:04;;;;;;;38.78;35.90;;;;;;;-143.39;100.00;64013.03;5050156;28;20053;-79
2022/08/02 00:24:33;;;;;;;42.40;39.25;;;;;;;-143.39;100.00;64013.03;5051482;28;20559;-79
2022/08/02 00:27:02;;;;;;;48.50;45.10;;;;;;;-143.39;100.00;64013.03;5047464;28;20060;-79
2022/08/02 00:29:29;;;;;;;40.70;37.60;;;;;;;-143.39;100.00;64013.03;5048601;28;21886;-79
2022/08/02 00:31:57;;;;;;;42.10;39.10;;;;;;;-143.39;100.00;64013.03;5048024;28;20073;-82
2022/08/02 00:34:24;;;;;;;43.03;39.78;;;;;;;-143.39;100.00;64013.03;5047254;28;20037;-79
2022/08/02 00:36:51;;;;;;;42.50;39.28;;;;;;;-143.39;100.00;64013.03;5050829;28;20053;-79
2022/08/02 00:39:18;;;;;;;40.08;37.28;;;;;;;-143.39;100.00;64013.03;5044599;28;20049;-82
2022/08/02 00:41:48;;;;;;;36.90;34.30;;;;;;;-143.39;100.00;64013.03;5052326;28;20045;-78
2022/08/02 00:44:15;;;;;;;53.88;49.97;;;;;;;-143.39;100.00;64013.03;5046425;28;20037;-82
2022/08/02 00:46:42;;;;;;;44.38;41.05;;;;;;;-143.39;100.00;64013.03;5046880;28;20113;-79
2022/08/02 00:49:09;;;;;;;45.90;42.42;;;;;;;-143.39;100.00;64013.03;5049444;28;20041;-82
2022/08/02 00:51:36;;;;;;;42.50;39.17;;;;;;;-143.39;100.00;64013.03;5044118;28;20053;-79
2022/08/02 00:54:03;;;;;;;49.10;45.55;;;;;;;-143.39;100.00;64013.03;5044048;28;20049;-80
2022/08/02 00:56:30;;;;;;;41.42;38.22;;;;;;;-143.39;100.00;64013.03;5049938;28;20421;-79
2022/08/02 00:58:58;;;;;;;43.47;40.28;;;;;;;-143.39;100.00;64013.03;5049955;28;20115;-82
2022/08/02 01:01:37;;;;;;;40.58;37.25;;;;;;;-143.39;100.00;64013.03;5047596;28;20041;-82
2022/08/02 01:04:05;;;;;;;41.78;38.67;;;;;;;-143.39;100.00;64013.03;5050453;28;20091;-78
2022/08/02 01:06:33;;;;;;;46.10;42.70;;;;;;;-143.39;100.00;64013.03;5042723;28;20136;-81
2022/08/02 01:09:00;;;;;;;54.25;50.50;;;;;;;-143.39;100.00;64013.03;5038034;28;20145;-82
2022/08/02 01:11:27;;;;;;;41.40;38.20;;;;;;;-143.39;100.00;64013.03;5049090;28;20053;-78
2022/08/02 01:13:59;;;;;;;41.00;37.90;;;;;;;-143.39;100.00;64013.03;5047398;28;20114;-82
2022/08/02 01:16:31;;;;;;;50.33;46.67;;;;;;;-143.39;100.00;64013.03;5047913;28;20045;-78
2022/08/02 01:19:08;;;;;;;49.00;45.17;;;;;;;-143.39;100.00;64013.03;5043470;28;20045;-79
2022/08/02 01:21:54;;;;;;;48.70;44.60;;;;;;;-143.39;100.00;64013.03;5045060;28;20053;-79
2022/08/02 01:24:46;;;;;;;50.20;46.70;;;;;;;-143.39;100.00;64013.03;5045552;28;20543;-82
2022/08/02 01:27:29;;;;;;;49.20;45.40;;;;;;;-143.39;100.00;64013.03;5050720;28;20057;-78
2022/08/02 01:30:01;;;;;;;46.28;42.42;;;;;;;-143.39;100.00;64013.03;5047098;28;20489;-81
2022/08/02 01:32:31;;;;;;;45.33;41.72;;;;;;;-143.39;100.00;64013.03;5042968;28;20084;-79
2022/08/02 01:35:03;;;;;;;41.53;38.30;;;;;;;-143.39;100.00;64013.03;5044991;28;20044;-78
2022/08/02 01:37:37;;;;;;;41.80;38.40;;;;;;;-143.39;100.00;64013.03;5048845;28;20041;-81
2022/08/02 01:40:11;;;;;;;42.58;39.03;;;;;;;-143.39;100.00;64013.03;5046895;28;20056;-78
2022/08/02 01:42:41;;;;;;;45.17;41.58;;;;;;;-143.39;100.00;64013.03;5048849;28;20041;-80
2022/08/02 01:45:12;;;;;;;43.22;39.63;;;;;;;-143.39;100.00;64013.03;5050567;28;20102;-79
2022/08/02 01:47:41;;;;;;;43.60;40.10;;;;;;;-143.39;100.00;64013.03;5049009;28;20037;-82
2022/08/02 01:50:13;;;;;;;41.30;37.80;;;;;;;-143.39;100.00;64013.03;5041842;28;20150;-81
2022/08/02 01:52:45;;;;;;;42.05;38.65;;;;;;;-143.39;100.00;64013.03;5048607;28;20059;-81
2022/08/02 01:55:16;;;;;;;44.28;40.63;;;;;;;-143.39;100.00;64013.03;5049091;28;20077;-78
2022/08/02 01:57:48;;;;;;;44.92;41.58;;;;;;;-143.39;100.00;64013.03;5046454;28;20041;-78
2022/08/02 02:02:54;;;;;;;40.40;37.05;;;;;;;-143.39;100.00;64013.03;5053264;22;20057;-83
2022/08/02 02:05:23;;;;;;;40.88;37.50;;;;;;;-143.39;100.00;64013.03;5044736;28;20036;-80
2022/08/02 02:07:55;;;;;;;44.42;40.92;;;;;;;-143.39;100.00;64013.03;5052417;28;20406;-82
2022/08/02 02:10:26;;;;;;;46.55;42.85;;;;;;;-143.39;100.00;64013.03;5048532;28;20405;-80
2022/08/02 02:12:54;;;;;;;47.80;43.90;;;;;;;-143.39;100.00;64013.03;5050197;28;20477;-80
2022/08/02 02:15:23;;;;;;;44.95;40.75;;;;;;;-143.39;100.00;64013.03;5058522;28;20447;-81
2022/08/02 02:17:54;;;;;;;40.75;37.22;;;;;;;-143.39;100.00;64013.03;5050346;28;20056;-81
2022/08/02 02:20:22;;;;;;;43.58;39.92;;;;;;;-143.39;100.00;64013.03;5058758;28;20048;-81
2022/08/02 02:22:49;;;;;;;43.00;39.47;;;;;;;-143.39;100.00;64013.03;5048457;28;20045;-81
2022/08/02 02:25:19;;;;;;;44.22;40.42;;;;;;;-143.39;100.00;64013.03;5045901;28;20061;-82
2022/08/02 02:27:54;;;;;;;45.67;41.97;;;;;;;-143.39;100.00;64013.03;5057912;28;20162;-82
2022/08/02 02:30:23;;;;;;;50.50;46.88;;;;;;;-143.39;100.00;64013.03;5054953;28;20045;-80
2022/08/02 02:32:55;;;;;;;39.92;36.80;;;;;;;-143.39;100.00;64013.03;5053453;28;20052;-79
2022/08/02 02:35:23;;;;;;;36.83;33.85;;;;;;;-143.39;100.00;64013.03;5050875;28;20492;-81
2022/08/02 02:37:52;;;;;;;43.80;40.75;;;;;;;-143.39;100.00;64013.03;5048948;28;20045;-81
2022/08/02 02:40:20;;;;;;;37.10;34.20;;;;;;;-143.39;100.00;64013.03;5059653;28;20048;-79
2022/08/02 02:42:48;;;;;;;40.38;36.85;;;;;;;-143.39;100.00;64013.03;5053978;28;20045;-79
2022/08/02 02:45:17;;;;;;;38.72;35.72;;;;;;;-143.39;100.00;64013.03;5054688;28;20053;-78
2022/08/02 02:47:45;;;;;;;37.13;34.03;;;;;;;-143.39;100.00;64013.03;5045215;28;20061;-78
2022/08/02 02:50:14;;;;;;;39.50;36.60;;;;;;;-143.39;100.00;64013.03;5046353;28;20758;-79
2022/08/02 02:52:42;;;;;;;42.15;38.85;;;;;;;-143.39;100.00;64013.03;5044079;28;20052;-79
2022/08/02 02:55:10;;;;;;;38.33;35.08;;;;;;;-143.39;100.00;64013.03;5044398;28;20053;-78
2022/08/02 02:57:37;;;;;;;45.28;41.22;;;;;;;-143.39;100.00;64013.03;5046542;28;20041;-82
2022/08/02 03:00:06;;;;;;;40.15;36.78;;;;;;;-143.39;100.00;64013.03;5047987;28;20057;-79
2022/08/02 03:02:34;;;;;;;37.67;34.67;;;;;;;-143.39;100.00;64013.03;5048197;28;20455;-78
2022/08/02 03:05:02;;;;;;;38.45;35.17;;;;;;;-143.39;100.00;64013.03;5048665;28;20049;-79
2022/08/02 03:07:33;;;;;;;36.97;33.75;;;;;;;-143.39;100.00;64013.03;5040863;28;20115;-82
2022/08/02 03:10:00;;;;;;;38.65;35.15;;;;;;;-143.39;100.00;64013.03;5051324;28;20138;-82
2022/08/02 03:12:28;;;;;;;38.38;35.05;;;;;;;-143.39;100.00;64013.03;5053153;28;20045;-82
2022/08/02 03:14:55;;;;;;;37.08;34.20;;;;;;;-143.39;100.00;64013.03;5049014;28;20103;-82
2022/08/02 03:17:22;;;;;;;36.20;33.50;;;;;;;-143.39;100.00;64013.03;5047308;28;20045;-79
2022/08/02 03:19:49;;;;;;;38.00;34.90;;;;;;;-143.39;100.00;64013.03;5049454;28;20041;-79
2022/08/02 03:22:15;;;;;;;36.22;32.95;;;;;;;-143.39;100.00;64013.03;5050972;28;20461;-79
2022/08/02 03:24:43;;;;;;;35.42;32.63;;;;;;;-143.39;100.00;64013.03;5046188;28;20041;-83
2022/08/02 03:27:10;;;;;;;36.63;33.88;;;;;;;-143.39;100.00;64013.03;5052291;28;20053;-83
2022/08/02 03:29:37;;;;;;;35.40;32.70;;;;;;;-143.39;100.00;64013.03;5049617;28;20049;-81
2022/08/02 03:32:05;;;;;;;36.92;33.67;;;;;;;-143.39;100.00;64013.03;5050173;28;20056;-83
2022/08/02 03:34:31;;;;;;;37.03;33.95;;;;;;;-143.39;100.00;64013.03;5050617;28;20046;-79
2022/08/02 03:36:59;;;;;;;40.45;36.97;;;;;;;-143.39;100.00;64013.03;5048908;28;20045;-81
2022/08/02 03:39:27;;;;;;;36.90;33.65;;;;;;;-143.39;100.00;64013.03;5048586;28;20060;-80
2022/08/02 03:41:55;;;;;;;36.50;33.70;;;;;;;-143.39;100.00;64013.03;5051663;28;20049;-79
2022/08/02 03:44:24;;;;;;;37.85;34.85;;;;;;;-143.39;100.00;64013.03;5050562;28;20037;-82
2022/08/02 03:46:52;;;;;;;37.30;33.97;;;;;;;-143.39;100.00;64013.03;5050700;28;20057;-79
2022/08/02 03:49:20;;;;;;;34.90;32.20;;;;;;;-143.39;100.00;64013.03;5042725;28;20045;-79
2022/08/02 03:51:47;;;;;;;36.60;33.80;;;;;;;-143.39;100.00;64013.03;5050506;28;20488;-81
2022/08/02 03:54:17;;;;;;;35.25;32.55;;;;;;;-143.39;100.00;64013.03;5049967;28;20045;-79
2022/08/02 03:56:44;;;;;;;37.25;34.42;;;;;;;-143.39;100.00;64013.03;5051552;28;20052;-79
2022/08/02 03:59:14;;;;;;;36.40;33.60;;;;;;;-143.39;100.00;64013.03;5048932;28;20465;-81
2022/08/02 04:01:40;;;;;;;35.72;32.85;;;;;;;-143.39;100.00;64013.03;5045050;28;20059;-81
2022/08/02 04:04:08;;;;;;;34.30;31.60;;;;;;;-143.39;100.00;64013.03;5051856;28;20064;-81
2022/08/02 04:06:35;;;;;;;33.63;30.90;;;;;;;-143.39;100.00;64013.03;5045308;28;20045;-78
2022/08/02 04:09:02;;;;;;;34.55;31.90;;;;;;;-143.39;100.00;64013.03;5046087;28;20053;-81
2022/08/02 04:11:31;;;;;;;32.90;30.30;;;;;;;-143.39;100.00;64013.03;5054152;28;20049;-78
2022/08/02 04:13:59;;;;;;;33.40;30.70;;;;;;;-143.39;100.00;64013.03;5054517;28;20132;-79
2022/08/02 04:16:37;;;;;;;37.85;34.95;;;;;;;-143.39;100.00;64013.03;5056738;28;20057;-78
2022/08/02 04:19:07;;;;;;;35.60;32.90;;;;;;;-143.39;100.00;64013.03;5046762;28;20477;-81
2022/08/02 04:21:40;;;;;;;35.97;32.88;;;;;;;-143.39;100.00;64013.03;5047352;28;20396;-80
2022/08/02 04:24:09;;;;;;;37.00;34.13;;;;;;;-143.39;100.00;64013.03;5050440;28;20063;-82
2022/08/02 04:26:37;;;;;;;38.85;35.90;;;;;;;-143.39;100.00;64013.03;5051853;28;20052;-79
2022/08/02 04:29:05;;;;;;;34.00;31.40;;;;;;;-143.39;100.00;64013.03;5048837;28;20068;-78
2022/08/02 04:31:34;;;;;;;35.10;32.72;;;;;;;-143.39;100.00;64013.03;5050116;28;20072;-80
2022/08/02 04:34:01;;;;;;;35.20;32.80;;;;;;;-143.39;100.00;64013.03;5047257;28;20045;-80
2022/08/02 04:36:28;;;;;;;37.30;34.80;;;;;;;-143.39;100.00;64013.03;5047870;28;20048;-78
2022/08/02 04:38:55;;;;;;;36.60;33.78;;;;;;;-143.39;100.00;64013.03;5047052;28;20037;-82
2022/08/02 04:41:22;;;;;;;38.13;35.72;;;;;;;-143.39;100.00;64013.03;5051134;28;20049;-82
2022/08/02 04:43:49;;;;;;;35.78;33.28;;;;;;;-143.39;100.00;64013.03;5047673;28;20056;-79
2022/08/02 04:46:16;;;;;;;38.40;35.95;;;;;;;-143.39;100.00;64013.03;5050178;28;20420;-82
2022/08/02 04:48:45;;;;;;;38.72;36.22;;;;;;;-143.39;100.00;64013.03;5056263;28;20068;-79
2022/08/02 04:51:11;;;;;;;37.03;34.80;;;;;;;-143.39;100.00;64013.03;5045758;28;20481;-82
2022/08/02 04:53:38;;;;;;;35.35;32.85;;;;;;;-143.39;100.00;64013.03;5046917;28;20041;-79
2022/08/02 04:56:05;;;;;;;35.20;32.97;;;;;;;-143.39;100.00;64013.03;5052030;28;20045;-79
2022/08/02 04:58:32;;;;;;;35.00;32.88;;;;;;;-143.39;100.00;64013.03;5048577;28;20473;-79
2022/08/02 05:00:59;;;;;;;33.08;30.90;;;;;;;-143.39;100.00;64013.03;5046679;28;20057;-79
2022/08/02 05:03:26;;;;;;;35.10;33.03;;;;;;;-143.39;100.00;64013.03;5048564;28;20040;-83
2022/08/02 05:05:54;;;;;;;36.20;33.80;;;;;;;-143.39;100.00;64013.03;5046350;28;20053;-82
2022/08/02 05:08:21;;;;;;;33.20;31.00;;;;;;;-143.39;100.00;64013.03;5043120;28;20045;-81
2022/08/02 05:10:48;;;;;;;31.83;29.42;;;;;;;-143.39;100.00;64013.03;5050665;28;20048;-81
2022/08/02 05:13:15;;;;;;;32.53;30.45;;;;;;;-143.39;100.00;64013.03;5048207;28;20383;-81
2022/08/02 05:15:42;;;;;;;33.30;31.10;;;;;;;-143.39;100.00;64013.03;5048086;28;20052;-81
2022/08/02 05:18:09;;;;;;;31.20;29.10;;;;;;;-143.39;100.00;64013.03;5048960;28;20061;-81
2022/08/02 05:20:36;;;;;;;31.90;30.00;;;;;;;-143.39;100.00;64013.03;5048109;28;20052;-82
2022/08/02 05:23:04;;;;;;;30.23;28.25;;;;;;;-143.39;100.00;64013.03;5050383;28;20090;-81
2022/08/02 05:25:31;;;;;;;28.38;26.55;;;;;;;-143.39;100.00;64013.03;5051650;28;20118;-79
2022/08/02 05:27:58;;;;;;;28.52;26.83;;;;;;;-143.39;100.00;64013.03;5046961;28;20412;-79
2022/08/02 05:30:25;;;;;;;26.27;24.55;;;;;;;-143.39;100.00;64013.03;5047314;28;20041;-79
2022/08/02 05:32:52;;;;;;;28.75;27.15;;;;;;;-143.39;100.00;64013.03;5048457;28;20467;-79
2022/08/02 05:35:20;;;;;;;32.53;30.52;;;;;;;-143.39;100.00;64013.03;5049201;28;20128;-82
2022/08/02 05:37:47;;;;;;;31.92;30.23;;;;;;;-143.39;100.00;64013.03;5049670;28;20462;-79
2022/08/02 05:40:16;;;;;;;31.55;29.73;;;;;;;-143.39;100.00;64013.03;5046808;28;20045;-79
2022/08/02 05:42:43;;;;;;;32.45;30.55;;;;;;;-143.39;100.00;64013.03;5049966;28;20048;-82
2022/08/02 05:45:11;;;;;;;31.80;30.05;;;;;;;-143.39;100.00;64013.03;5048946;28;20048;-81
2022/08/02 13:43:26;;;;;;;26.48;24.17;;;;;;;30.91;54.73;100729.53;5081183;27;20410;-81
2022/08/02 13:45:53;;;;;;;25.48;23.45;;;;;;;30.54;53.67;100729.50;5073614;28;20475;-81
2022/08/02 13:48:20;;;;;;;25.95;23.75;;;;;;;30.52;53.48;100733.72;5064481;28;20137;-81
2022/08/02 13:50:47;;;;;;;25.77;23.52;;;;;;;30.49;52.68;100732.47;5066425;28;20041;-81
2022/08/02 13:53:14;;;;;;;26.02;23.55;;;;;;;30.58;56.35;100735.09;5070283;28;20052;-80
2022/08/02 13:55:41;;;;;;;25.90;23.70;;;;;;;30.38;53.31;100727.75;5069262;28;20049;-80
2022/08/02 13:58:08;;;;;;;29.10;26.80;;;;;;;30.34;55.26;100730.38;5072641;28;20049;-80
2022/08/02 14:00:37;;;;;;;27.33;25.23;;;;;;;30.50;55.24;100736.00;5085080;28;20483;-77
2022/08/02 14:03:05;;;;;;;28.52;26.33;;;;;;;30.31;53.54;100736.53;5075355;28;20051;-78
2022/08/02 14:05:32;;;;;;;26.23;24.13;;;;;;;30.48;57.13;100744.56;5072849;28;20063;-78
2022/08/02 14:08:00;;;;;;;26.58;24.52;;;;;;;30.41;53.92;100738.03;5069519;28;20045;-80
2022/08/02 14:10:27;;;;;;;26.40;24.30;;;;;;;30.33;51.80;100739.75;5069391;28;20052;-78
2022/08/02 14:12:54;;;;;;;24.73;22.83;;;;;;;30.29;50.95;100736.88;5073670;28;20044;-82
2022/08/02 14:15:21;;;;;;;25.25;23.08;;;;;;;30.37;51.59;100737.91;5069825;28;20055;-80
2022/08/02 14:17:49;;;;;;;25.55;23.55;;;;;;;30.48;52.47;100733.59;5070866;28;20078;-81
2022/08/02 14:20:16;;;;;;;25.17;23.08;;;;;;;30.54;50.41;100737.72;5070569;28;20059;-79
2022/08/02 14:22:43;;;;;;;25.25;23.15;;;;;;;30.84;50.90;100736.75;5069847;28;20048;-80
2022/08/02 14:25:10;;;;;;;25.83;23.63;;;;;;;31.01;49.99;100736.50;5066650;28;20059;-80
2022/08/02 14:27:37;;;;;;;25.80;23.70;;;;;;;30.96;49.48;100734.03;5069398;28;20078;-79
2022/08/02 14:30:05;;;;;;;26.10;23.48;;;;;;;30.95;49.21;100735.13;5066223;28;20511;-81
2022/08/02 14:32:32;;;;;;;29.08;26.67;;;;;;;30.79;49.39;100737.78;5072566;28;20050;-78
2022/08/02 14:35:00;;;;;;;27.77;25.58;;;;;;;30.62;49.51;100733.25;5082163;28;20048;-80
2022/08/02 14:37:27;;;;;;;28.35;26.25;;;;;;;30.44;48.33;100729.97;5078386;28;20049;-78
2022/08/02 14:39:54;;;;;;;28.35;26.35;;;;;;;30.37;48.03;100726.16;5071122;28;20401;-79
2022/08/02 14:42:21;;;;;;;30.08;27.88;;;;;;;30.56;48.42;100727.22;5078844;28;20386;-82
2022/08/02 14:44:48;;;;;;;29.17;27.00;;;;;;;30.33;48.67;100718.63;5056815;28;20393;-77
2022/08/02 14:47:15;;;;;;;29.42;27.17;;;;;;;30.60;50.51;100723.81;5046970;28;20049;-78
2022/08/02 14:49:42;;;;;;;28.85;26.75;;;;;;;30.55;50.11;100736.56;5059042;28;20045;-77
2022/08/02 14:52:13;;;;;;;27.40;25.20;;;;;;;30.73;46.20;100728.94;5068719;28;20396;-79
2022/08/02 14:54:41;;;;;;;28.88;26.60;;;;;;;30.95;47.70;100719.47;5057158;28;20087;-81
2022/08/02 14:57:09;;;;;;;27.75;25.65;;;;;;;30.95;49.45;100727.72;5055230;28;20059;-81
2022/08/02 14:59:36;;;;;;;28.25;26.15;;;;;;;31.09;49.82;100724.63;5069753;28;20492;-82
2022/08/02 15:02:03;;;;;;;27.65;25.35;;;;;;;30.91;48.70;100723.28;5065248;28;20400;-79
2022/08/02 15:04:33;;;;;;;28.98;26.35;;;;;;;30.83;51.24;100724.97;5068398;28;20051;-80
2022/08/02 15:07:00;;;;;;;28.40;26.10;;;;;;;30.85;48.75;100722.69;5068681;28;20138;-77
2022/08/02 15:09:28;;;;;;;28.85;26.65;;;;;;;30.79;49.98;100724.06;5058466;28;20045;-78
2022/08/02 15:11:55;;;;;;;28.15;25.90;;;;;;;30.74;50.17;100716.03;5070144;28;20055;-81
2022/08/02 15:14:22;;;;;;;28.27;26.17;;;;;;;30.58;49.88;100727.66;5067102;28;20055;-80
2022/08/02 15:16:49;;;;;;;27.75;25.75;;;;;;;30.39;49.39;100721.16;5053609;28;20059;-81
2022/08/02 15:19:16;;;;;;;28.55;26.45;;;;;;;30.40;49.01;100722.75;5063530;28;20432;-78
2022/08/02 15:21:44;;;;;;;29.83;27.63;;;;;;;30.34;48.83;100719.41;5063077;28;20052;-80
2022/08/02 15:24:11;;;;;;;30.67;28.23;;;;;;;30.56;51.78;100715.44;5056910;28;20048;-81
2022/08/02 15:26:39;;;;;;;31.45;29.15;;;;;;;30.29;48.20;100716.91;5061815;28;20037;-80
2022/08/02 15:29:06;;;;;;;26.20;23.95;;;;;;;30.41;51.63;100721.59;5047502;28;20405;-79
2022/08/02 15:31:33;;;;;;;26.85;24.52;;;;;;;30.57;50.06;100719.81;5056305;28;20056;-79
2022/08/02 15:34:01;;;;;;;27.05;24.75;;;;;;;30.63;50.37;100718.44;5068131;28;20048;-80
2022/08/02 15:36:28;;;;;;;26.98;24.88;;;;;;;30.24;47.51;100719.88;5066764;28;20489;-80
2022/08/02 15:38:56;;;;;;;25.88;23.73;;;;;;;30.34;48.70;100724.91;5062150;28;20044;-80
2022/08/02 15:41:23;;;;;;;27.02;24.75;;;;;;;30.24;48.83;100717.13;5056877;28;20053;-81
2022/08/02 15:43:51;;;;;;;26.42;24.13;;;;;;;30.26;49.75;100726.59;5054144;28;20049;-78
2022/08/02 15:46:18;;;;;;;27.85;25.45;;;;;;;30.16;48.06;100721.50;5058994;28;20056;-81
2022/08/02 15:48:45;;;;;;;28.40;26.23;;;;;;;30.13;55.74;100722.19;5060342;28;20040;-78
2022/08/02 15:51:12;;;;;;;28.77;26.58;;;;;;;30.18;48.51;100721.19;5053530;28;20041;-80
2022/08/02 15:53:39;;;;;;;26.50;24.35;;;;;;;30.38;46.55;100720.34;5055684;28;20044;-80
2022/08/02 15:56:07;;;;;;;28.10;25.90;;;;;;;30.53;46.28;100719.69;5052859;28;20049;-81
2022/08/02 15:58:34;;;;;;;29.15;26.85;;;;;;;30.34;47.63;100725.69;5053558;28;20128;-81
2022/08/02 16:01:02;;;;;;;27.50;25.50;;;;;;;30.08;47.66;100727.91;5054863;28;20047;-78
2022/08/02 16:03:29;;;;;;;27.60;25.55;;;;;;;30.13;48.29;100724.94;5062095;28;20049;-81
2022/08/02 16:05:56;;;;;;;28.10;25.80;;;;;;;30.12;46.60;100726.06;5057640;28;20055;-78
2022/08/02 16:08:23;;;;;;;26.88;24.75;;;;;;;30.20;45.99;100729.84;5054923;28;20076;-79
2022/08/02 16:10:50;;;;;;;26.88;24.77;;;;;;;30.22;49.17;100731.16;5057517;28;20056;-78
2022/08/02 16:16:03;;;;;;;27.75;25.25;;;;;;;29.65;57.92;100729.91;5054674;28;20128;-79
2022/08/02 16:18:30;;;;;;;30.10;27.83;;;;;;;29.58;60.38;100732.31;5065106;28;20052;-81
2022/08/02 16:20:57;;;;;;;26.85;24.65;;;;;;;29.20;54.84;100735.19;5057575;28;20461;-79
2022/08/02 16:23:24;;;;;;;30.80;28.40;;;;;;;29.27;69.79;100740.91;5061904;28;20084;-81
2022/08/02 16:25:51;;;;;;;27.65;25.55;;;;;;;29.16;55.34;100740.47;5066236;28;20052;-80
2022/08/02 16:28:18;;;;;;;29.20;27.00;;;;;;;29.02;58.87;100748.13;5065908;28;20052;-81
2022/08/02 16:30:46;;;;;;;30.10;27.80;;;;;;;28.67;63.50;100744.72;5062606;28;20041;-81
2022/08/02 16:33:14;;;;;;;30.70;28.33;;;;;;;28.70;72.11;100755.00;5054877;28;20068;-78
2022/08/02 16:35:42;;;;;;;31.65;29.27;;;;;;;28.60;70.41;100752.63;5061468;28;20048;-78
2022/08/02 16:38:08;;;;;;;33.28;30.77;;;;;;;28.47;67.88;100748.94;5056951;28;20057;-78
2022/08/02 16:40:36;;;;;;;34.40;31.27;;;;;;;28.44;70.30;100755.06;5055215;28;20473;-81
2022/08/02 16:43:03;;;;;;;30.80;27.88;;;;;;;28.25;71.18;100748.00;5055678;28;20481;-81
2022/08/02 16:45:30;;;;;;;31.05;28.27;;;;;;;28.12;67.36;100750.94;5053792;28;20485;-81
2022/08/02 16:47:57;;;;;;;35.05;32.25;;;;;;;28.13;74.31;100758.78;5060912;28;20044;-79
2022/08/02 16:50:27;;;;;;;28.90;26.33;;;;;;;27.95;84.87;100758.00;5065513;28;20053;-79
2022/08/02 16:52:55;;;;;;;30.60;27.90;;;;;;;27.85;84.80;100761.88;5054336;28;20041;-77
2022/08/02 16:55:22;;;;;;;27.92;25.55;;;;;;;27.72;91.58;100760.06;5054571;28;20045;-79
2022/08/02 16:57:49;;;;;;;29.45;26.85;;;;;;;27.54;97.94;100761.97;5062384;28;20048;-81
2022/08/02 17:00:16;;;;;;;28.40;25.98;;;;;;;26.65;100.00;100772.06;5070808;28;20055;-80
2022/08/02 17:02:43;;;;;;;33.22;30.90;;;;;;;26.93;100.00;100769.97;5066715;28;20387;-81
2022/08/02 17:05:10;;;;;;;28.92;26.55;;;;;;;27.03;100.00;100762.63;5049808;28;20053;-78
2022/08/02 17:07:39;;;;;;;36.65;33.90;;;;;;;26.38;100.00;100770.28;5053583;28;20133;-77
2022/08/02 17:10:07;;;;;;;28.20;26.00;;;;;;;26.55;100.00;100769.63;5064243;28;20496;-81
2022/08/02 17:12:34;;;;;;;27.35;25.10;;;;;;;26.02;100.00;100762.19;5052665;28;20049;-80
2022/08/02 17:15:01;;;;;;;28.02;25.88;;;;;;;26.23;100.00;100762.50;5067324;28;20399;-83
2022/08/02 17:17:28;;;;;;;27.65;25.40;;;;;;;26.10;100.00;100768.81;5066846;28;20052;-78
2022/08/02 17:19:55;;;;;;;27.02;24.88;;;;;;;25.92;100.00;100770.59;5066748;28;20049;-78
2022/08/02 17:22:22;;;;;;;27.08;24.40;;;;;;;25.08;100.00;100778.03;5065204;28;20037;-81
2022/08/02 17:24:51;;;;;;;27.92;25.17;;;;;;;24.91;100.00;100784.06;5066775;28;20044;-78
2022/08/02 17:27:18;;;;;;;28.70;26.13;;;;;;;25.06;100.00;100782.97;5065521;28;21538;-78
2022/08/02 17:29:45;;;;;;;26.25;24.17;;;;;;;25.04;100.00;100785.16;5069084;28;20055;-80
2022/08/02 17:32:13;;;;;;;26.90;24.90;;;;;;;24.20;100.00;100785.25;5067511;28;20048;-80
2022/08/02 17:34:40;;;;;;;27.67;25.48;;;;;;;24.45;100.00;100793.03;5061225;28;20398;-80
2022/08/02 17:37:07;;;;;;;28.13;25.83;;;;;;;24.68;100.00;100793.16;5049488;28;20048;-80
2022/08/02 17:39:34;;;;;;;26.70;24.48;;;;;;;25.12;100.00;100789.91;5047410;28;20048;-78
2022/08/02 17:42:03;;;;;;;28.85;25.95;;;;;;;25.24;100.00;100791.34;5052068;28;20053;-81
2022/08/02 17:44:30;;;;;;;27.92;25.73;;;;;;;24.54;100.00;100786.91;5064372;28;20071;-81
2022/08/02 17:46:59;;;;;;;28.50;26.30;;;;;;;24.04;100.00;100784.69;5052234;28;20053;-79
2022/08/02 17:49:26;;;;;;;27.77;25.80;;;;;;;23.91;100.00;100796.28;5052381;28;20492;-80
2022/08/02 17:51:53;;;;;;;29.02;26.92;;;;;;;24.26;100.00;100797.63;5052681;28;20040;-81
2022/08/02 17:54:21;;;;;;;29.52;27.05;;;;;;;24.51;100.00;100801.91;5049071;28;20045;-80
2022/08/02 17:56:49;;;;;;;27.85;25.58;;;;;;;24.40;100.00;100803.94;5047209;28;20500;-79
2022/08/02 17:59:21;;;;;;;28.35;25.63;;;;;;;23.43;100.00;100807.19;5048121;28;20065;-78
2022/08/02 18:01:49;;;;;;;29.58;27.10;;;;;;;23.28;100.00;100803.56;5039416;28;20051;-81
2022/08/02 18:04:16;;;;;;;27.13;25.00;;;;;;;23.14;100.00;100807.25;5050093;28;20054;-81
2022/08/02 18:06:46;;;;;;;28.17;25.88;;;;;;;23.59;100.00;100819.44;5050172;28;20592;-81
2022/08/02 18:09:14;;;;;;;31.85;29.50;;;;;;;23.79;100.00;100809.47;5055937;28;20466;-80
2022/08/02 18:11:42;;;;;;;28.05;25.83;;;;;;;23.42;100.00;100819.09;5053236;28;20045;-80
2022/08/02 18:14:09;;;;;;;28.23;25.92;;;;;;;22.76;100.00;100818.69;5054309;28;20049;-80
2022/08/02 18:16:37;;;;;;;26.80;24.60;;;;;;;23.20;100.00;100815.03;5051808;28;20049;-81
2022/08/02 18:19:04;;;;;;;26.33;24.05;;;;;;;22.93;100.00;100820.97;5054337;28;20053;-81
2022/08/02 18:21:31;;;;;;;25.55;23.35;;;;;;;22.53;100.00;100831.06;5059476;28;20045;-80
2022/08/02 18:23:58;;;;;;;26.92;24.52;;;;;;;23.05;100.00;100840.38;5064739;28;20056;-81
2022/08/02 18:26:26;;;;;;;27.45;24.73;;;;;;;22.36;100.00;100838.75;5069469;28;20052;-78
2022/08/02 18:28:53;;;;;;;27.55;24.95;;;;;;;22.16;100.00;100843.22;5071307;28;20056;-79
2022/08/02 18:31:21;;;;;;;27.42;24.80;;;;;;;22.80;100.00;100840.59;5075234;28;20079;-80
2022/08/02 18:33:51;;;;;;;26.25;23.85;;;;;;;22.72;100.00;100846.59;5058217;28;20049;-81
2022/08/02 18:36:17;;;;;;;26.40;24.08;;;;;;;23.02;100.00;100843.66;5068086;28;20144;-82
2022/08/02 18:38:45;;;;;;;25.55;23.17;;;;;;;23.06;100.00;100850.13;5060863;28;20041;-80
2022/08/02 18:41:11;;;;;;;26.02;23.40;;;;;;;22.65;100.00;100846.94;5058918;28;20045;-82
2022/08/02 18:43:38;;;;;;;24.63;22.52;;;;;;;22.36;100.00;100858.53;5063072;28;20057;-79
2022/08/02 18:46:07;;;;;;;24.45;22.38;;;;;;;22.61;100.00;100854.81;5068179;28;20122;-81
2022/08/02 18:48:34;;;;;;;23.63;21.73;;;;;;;22.65;100.00;100855.06;5068117;28;20076;-81
2022/08/02 18:51:02;;;;;;;25.13;23.00;;;;;;;22.64;100.00;100859.66;5054947;28;20379;-80
2022/08/02 18:53:29;;;;;;;25.20;23.10;;;;;;;22.57;100.00;100864.63;5062761;28;20143;-82
2022/08/02 18:55:56;;;;;;;23.83;21.88;;;;;;;22.38;100.00;100869.06;5054892;28;20052;-83
2022/08/02 18:58:40;;;;;;;25.00;22.65;;;;;;;22.41;100.00;100872.00;5063779;28;20049;-79
2022/08/02 19:01:08;;;;;;;24.30;22.40;;;;;;;22.23;100.00;100874.56;5049527;28;20056;-82
2022/08/02 19:03:35;;;;;;;24.85;23.15;;;;;;;21.35;100.00;100876.78;5049925;28;20064;-81